Time;durP1;ratioP1;P1;durP2;ratioP2;P2;SDS_P1;SDS_P2;PMS_P1;PMS_P2;Temp;Humidity;BMP_temperature;BMP_pressure;BME280_temperature;BME280_humidity;BME280_pressure;Samples;Min_cycle;Max_cycle;Signal;HPM_P1;HPM_P2
2022/04/06 00:02:21;;;;;;;;;;;;;;;6.82;99.09;97887.44;8397601;28;19959;-70
2022/04/06 00:06:22;;;;;;;;;;;;;;;6.78;99.44;97897.25;8399602;28;19920;-71
2022/04/06 00:10:24;;;;;;;;;;;;;;;6.76;99.96;97888.72;8399793;28;19927;-71
2022/04/06 00:14:25;;;;;;;;;;;;;;;6.80;100.00;97889.69;8398484;28;20549;-71
2022/04/06 00:18:26;;;;;;;;;;;;;;;6.76;100.00;97896.78;8399870;28;19921;-71
2022/04/06 00:22:27;;;;;;;;;;;;;;;6.80;100.00;97895.03;8396950;28;19926;-72
2022/04/06 00:26:27;;;;;;;;;;;;;;;6.87;100.00;97900.75;8398805;28;20356;-71
2022/04/06 00:30:28;;;;;;;;;;;;;;;6.84;99.37;97901.34;8399032;28;19928;-71
2022/04/06 00:38:50;;;;;;;;;;;;;;;7.00;98.49;97910.53;8398695;28;19928;-71
2022/04/06 00:42:53;;;;;;;;;;;;;;;7.08;98.61;97906.31;8399349;28;19927;-71
2022/04/06 00:46:54;;;;;;;;;;;;;;;7.10;97.99;97918.28;8398290;28;19921;-71
2022/04/06 00:50:55;;;;;;;;;;;;;;;7.10;98.10;97898.69;8398653;28;20345;-71
2022/04/06 00:54:56;;;;;;;;;;;;;;;7.13;98.60;97919.56;8412763;28;20296;-71
2022/04/06 00:58:56;;;;;;;;;;;;;;;7.00;99.04;97921.28;8396309;28;19927;-71
2022/04/06 01:02:58;;;;;;;;;;;;;;;7.17;99.37;97921.31;8397816;28;19932;-72
2022/04/06 01:06:59;;;;;;;;;;;;;;;7.28;99.63;97921.78;8395156;28;19952;-71
2022/04/06 01:11:00;;;;;;;;;;;;;;;7.43;99.05;97933.94;8395663;28;20018;-71
2022/04/06 01:15:01;;;;;;;;;;;;;;;7.45;99.51;97921.00;8396232;28;19928;-71
2022/04/06 01:19:01;;;;;;;;;;;;;;;7.50;99.43;97918.16;8395731;28;19928;-71
2022/04/06 01:23:03;;;;;;;;;;;;;;;7.51;99.21;97919.72;8397181;28;19927;-71
2022/04/06 01:27:07;;;;;;;;;;;;;;;7.48;99.64;97931.09;8397293;28;20440;-71
2022/04/06 01:31:08;;;;;;;;;;;;;;;7.42;100.00;97932.34;8397234;28;19920;-72
2022/04/06 01:35:08;;;;;;;;;;;;;;;7.48;100.00;97914.97;8397271;28;19920;-71
2022/04/06 01:39:09;;;;;;;;;;;;;;;7.49;100.00;97914.66;8397028;28;19926;-70
2022/04/06 01:43:10;;;;;;;;;;;;;;;7.64;100.00;97924.13;8396868;28;19927;-71
2022/04/06 01:47:11;;;;;;;;;;;;;;;7.68;100.00;97919.69;8396085;28;19920;-71
2022/04/06 01:55:32;;;;;;;;;;;;;;;7.71;100.00;97934.41;8396043;28;19921;-71
2022/04/06 01:59:32;;;;;;;;;;;;;;;7.72;100.00;97931.38;8393923;28;20295;-71
2022/04/06 02:03:33;;;;;;;;;;;;;;;7.86;99.36;97936.59;8395668;28;20284;-72
2022/04/06 02:07:34;;;;;;;;;;;;;;;7.90;98.92;97932.94;8395109;28;19927;-71
2022/04/06 02:11:35;;;;;;;;;;;;;;;7.86;99.11;97937.41;8395965;28;20380;-71
2022/04/06 02:15:37;;;;;;;;;;;;;;;7.87;99.16;97941.66;8376884;28;19920;-71
2022/04/06 02:19:39;;;;;;;;;;;;;;;7.82;99.44;97931.09;8392905;28;20096;-71
2022/04/06 02:23:40;;;;;;;;;;;;;;;7.82;99.21;97925.72;8395234;28;20315;-71
2022/04/06 02:27:48;;;;;;;;;;;;;;;7.80;99.64;97938.66;8395705;28;20007;-71
2022/04/06 02:31:49;;;;;;;;;;;;;;;7.91;99.00;97929.16;8393013;28;19920;-72
2022/04/06 02:35:50;;;;;;;;;;;;;;;7.84;99.45;97928.84;8394875;28;19921;-71
2022/04/06 02:39:51;;;;;;;;;;;;;;;7.86;99.65;97932.03;8395078;28;19966;-72
2022/04/06 02:43:51;;;;;;;;;;;;;;;7.88;99.55;97934.38;8394837;28;19995;-71
2022/04/06 02:47:52;;;;;;;;;;;;;;;7.87;99.66;97932.81;8394649;28;19920;-71
2022/04/06 02:51:53;;;;;;;;;;;;;;;7.87;99.43;97927.44;8395247;28;19924;-71
2022/04/06 02:55:54;;;;;;;;;;;;;;;7.89;99.80;97931.38;8409056;28;20011;-71
2022/04/06 02:59:54;;;;;;;;;;;;;;;7.89;99.90;97931.38;8393468;28;19927;-71
2022/04/06 03:03:55;;;;;;;;;;;;;;;7.93;99.95;97932.31;8394697;28;19920;-71
2022/04/06 03:07:56;;;;;;;;;;;;;;;7.91;100.00;97939.13;8358304;28;19927;-72
2022/04/06 03:11:59;;;;;;;;;;;;;;;7.92;100.00;97929.94;8375733;28;19926;-71
2022/04/06 03:15:59;;;;;;;;;;;;;;;7.87;100.00;97932.81;8394039;28;20269;-71
2022/04/06 03:20:02;;;;;;;;;;;;;;;7.91;100.00;97929.16;8393590;28;20007;-71
2022/04/06 03:24:03;;;;;;;;;;;;;;;7.86;100.00;97937.41;8394879;28;19966;-71
2022/04/06 03:28:04;;;;;;;;;;;;;;;7.91;99.99;97928.38;8393328;28;20018;-71
2022/04/06 03:32:06;;;;;;;;;;;;;;;7.92;99.90;97941.50;8391717;28;19936;-71
2022/04/06 03:36:08;;;;;;;;;;;;;;;7.99;99.32;97941.78;8393010;28;19921;-71
2022/04/06 03:40:09;;;;;;;;;;;;;;;8.03;98.77;97937.38;8389646;28;19928;-72
2022/04/06 03:44:10;;;;;;;;;;;;;;;7.97;99.04;97944.03;8393071;28;19921;-71
2022/04/06 03:48:11;;;;;;;;;;;;;;;7.97;98.99;97933.25;8392584;28;19928;-71
2022/04/06 03:52:12;;;;;;;;;;;;;;;7.98;98.92;97940.19;8389544;28;19929;-70
2022/04/06 03:56:13;;;;;;;;;;;;;;;8.03;98.69;97947.31;8392404;28;19970;-71
2022/04/06 04:00:14;;;;;;;;;;;;;;;8.03;98.53;97942.75;8392163;28;20276;-70
2022/04/06 04:04:19;;;;;;;;;;;;;;;7.95;99.01;97935.47;8393786;28;19944;-71
2022/04/06 04:08:22;;;;;;;;;;;;;;;7.95;99.37;97938.16;8395429;28;19926;-72
2022/04/06 04:12:23;;;;;;;;;;;;;;;7.88;100.00;97945.13;8397844;28;20407;-71
2022/04/06 04:16:24;;;;;;;;;;;;;;;7.81;100.00;97940.25;8399679;28;19925;-71
2022/04/06 04:20:24;;;;;;;;;;;;;;;7.77;100.00;97950.06;8398637;28;19921;-71
2022/04/06 04:24:25;;;;;;;;;;;;;;;7.73;100.00;97949.09;8399661;28;20432;-71
2022/04/06 04:28:26;;;;;;;;;;;;;;;7.84;100.00;97944.97;8398709;28;19924;-71
2022/04/06 04:32:27;;;;;;;;;;;;;;;7.85;100.00;97946.56;8393573;28;19927;-70
2022/04/06 04:36:28;;;;;;;;;;;;;;;7.78;100.00;97940.88;8399406;28;19928;-71
2022/04/06 04:40:29;;;;;;;;;;;;;;;7.76;100.00;97945.78;8391326;28;19942;-71
2022/04/06 04:44:30;;;;;;;;;;;;;;;7.66;100.00;97948.81;8390591;28;20339;-71
2022/04/06 04:48:34;;;;;;;;;;;;;;;7.70;100.00;97949.75;8397596;28;19927;-70
2022/04/06 04:52:35;;;;;;;;;;;;;;;7.63;100.00;97954.78;8396439;28;20635;-71
2022/04/06 04:56:36;;;;;;;;;;;;;;;7.65;100.00;97957.97;8394893;28;19935;-71
2022/04/06 05:00:37;;;;;;;;;;;;;;;7.58;100.00;97946.91;8402497;28;19920;-71
2022/04/06 05:04:37;;;;;;;;;;;;;;;7.52;100.00;97969.66;8398990;28;20439;-71
2022/04/06 05:08:38;;;;;;;;;;;;;;;7.55;100.00;97969.03;8396178;28;20364;-71
2022/04/06 05:12:39;;;;;;;;;;;;;;;7.54;100.00;97962.06;8407784;28;19929;-71
2022/04/06 05:16:40;;;;;;;;;;;;;;;7.58;100.00;97977.25;8395847;28;19947;-71
2022/04/06 05:20:41;;;;;;;;;;;;;;;7.53;100.00;97981.97;8395458;28;20482;-70
2022/04/06 05:24:41;;;;;;;;;;;;;;;7.60;100.00;97976.94;8410154;28;19943;-71
2022/04/06 05:28:42;;;;;;;;;;;;;;;7.69;100.00;97983.09;8399167;28;19924;-71
2022/04/06 05:32:43;;;;;;;;;;;;;;;7.64;100.00;97988.63;8395612;28;20391;-71
2022/04/06 05:36:44;;;;;;;;;;;;;;;7.69;100.00;97980.41;8394298;28;20410;-70
2022/04/06 05:40:45;;;;;;;;;;;;;;;7.71;100.00;97983.56;8395919;28;19920;-71
2022/04/06 05:44:46;;;;;;;;;;;;;;;7.68;100.00;97999.53;8382995;28;19921;-70
2022/04/06 05:48:47;;;;;;;;;;;;;;;7.73;100.00;97997.47;8395560;28;19931;-71
2022/04/06 05:52:48;;;;;;;;;;;;;;;7.68;100.00;98005.69;8394954;28;19962;-71
2022/04/06 05:56:49;;;;;;;;;;;;;;;7.70;100.00;98002.69;8394479;28;20291;-71
2022/04/06 06:00:50;;;;;;;;;;;;;;;7.71;100.00;98005.06;8394391;28;19920;-71
2022/04/06 06:04:51;;;;;;;;;;;;;;;7.74;100.00;97993.69;8395858;28;19943;-71
2022/04/06 06:08:52;;;;;;;;;;;;;;;7.85;100.00;98003.00;8390697;28;20232;-70
2022/04/06 06:12:53;;;;;;;;;;;;;;;7.79;100.00;98006.97;8388141;28;20395;-71
2022/04/06 06:16:54;;;;;;;;;;;;;;;7.90;100.00;98013.59;8396772;28;19928;-71
2022/04/06 06:20:56;;;;;;;;;;;;;;;7.95;100.00;98016.13;8395644;28;20212;-71
2022/04/06 06:24:57;;;;;;;;;;;;;;;8.01;100.00;98014.06;8393766;28;19920;-70
2022/04/06 06:28:59;;;;;;;;;;;;;;;8.07;100.00;98013.59;8385944;28;19931;-71
2022/04/06 06:33:00;;;;;;;;;;;;;;;8.18;100.00;98002.50;8393943;28;19966;-71
2022/04/06 06:37:01;;;;;;;;;;;;;;;8.04;100.00;98008.81;8394886;28;19920;-71
2022/04/06 06:41:03;;;;;;;;;;;;;;;8.19;99.83;98020.22;8395022;28;20007;-71
2022/04/06 06:45:04;;;;;;;;;;;;;;;8.24;98.83;98017.34;8394726;28;19924;-71
2022/04/06 06:49:05;;;;;;;;;;;;;;;8.33;98.38;98020.84;8424695;28;19928;-70
2022/04/06 06:53:05;;;;;;;;;;;;;;;8.47;97.20;98027.59;8394782;28;20340;-71
2022/04/06 06:57:06;;;;;;;;;;;;;;;8.49;96.58;98024.59;8393259;28;20011;-71
2022/04/06 07:01:07;;;;;;;;;;;;;;;8.50;96.80;98015.44;8393937;28;20334;-71
2022/04/06 07:05:11;;;;;;;;;;;;;;;8.64;95.59;98034.84;8394785;28;19932;-71
2022/04/06 07:09:12;;;;;;;;;;;;;;;8.74;95.05;98031.81;8394659;28;20483;-71
2022/04/06 07:13:15;;;;;;;;;;;;;;;8.82;95.41;98032.91;8394309;28;19966;-70
2022/04/06 07:17:16;;;;;;;;;;;;;;;8.89;94.88;98025.88;8394210;28;20288;-71
2022/04/06 07:21:17;;;;;;;;;;;;;;;9.03;94.41;98035.66;8394027;28;19930;-71
2022/04/06 07:25:19;;;;;;;;;;;;;;;9.12;92.81;98031.00;8394370;28;19929;-71
2022/04/06 07:29:20;;;;;;;;;;;;;;;9.14;92.35;98034.19;8408091;28;19928;-71
2022/04/06 07:33:20;;;;;;;;;;;;;;;9.10;92.92;98022.44;8393784;28;20506;-71
2022/04/06 07:37:21;;;;;;;;;;;;;;;9.08;93.58;98030.09;8393686;28;19921;-70
2022/04/06 07:41:24;;;;;;;;;;;;;;;9.16;92.93;98037.31;8393875;28;20011;-71
2022/04/06 07:45:26;;;;;;;;;;;;;;;9.24;92.91;98039.19;8396150;28;19920;-70
2022/04/06 07:49:26;;;;;;;;;;;;;;;9.33;92.61;98026.44;8414924;28;20360;-70
2022/04/06 07:53:28;;;;;;;;;;;;;;;9.47;91.87;98032.38;8399714;28;19927;-71
2022/04/06 07:57:29;;;;;;;;;;;;;;;9.57;91.73;98037.38;8399746;28;19924;-70
2022/04/06 08:01:30;;;;;;;;;;;;;;;9.72;90.56;98049.50;8401667;28;20394;-70
2022/04/06 08:05:31;;;;;;;;;;;;;;;9.70;90.14;98047.13;8396122;28;20260;-72
2022/04/06 08:09:31;;;;;;;;;;;;;;;9.72;90.71;98038.72;8396765;28;20426;-71
2022/04/06 08:13:32;;;;;;;;;;;;;;;9.83;89.19;98047.22;8400213;28;20344;-72
2022/04/06 08:17:41;;;;;;;;;;;;;;;9.72;88.72;98061.09;8399908;28;19924;-71
2022/04/06 08:21:45;;;;;;;;;;;;;;;9.73;88.50;98057.25;8399971;28;19920;-71
2022/04/06 08:25:46;;;;;;;;;;;;;;;9.91;88.33;98051.72;8380865;28;19920;-71
2022/04/06 08:29:46;;;;;;;;;;;;;;;10.13;86.78;98054.09;8414248;28;19927;-71
2022/04/06 08:33:48;;;;;;;;;;;;;;;10.33;85.19;98058.69;8399342;28;19924;-71
2022/04/06 08:37:50;;;;;;;;;;;;;;;10.45;83.96;98066.84;8399160;28;19959;-71
2022/04/06 08:41:53;;;;;;;;;;;;;;;10.64;85.28;98057.44;8398830;28;20400;-71
2022/04/06 08:45:53;;;;;;;;;;;;;;;10.85;83.74;98058.16;8396613;28;19924;-72
2022/04/06 08:49:54;;;;;;;;;;;;;;;10.88;83.20;98057.50;8397081;28;19928;-71
2022/04/06 08:53:55;;;;;;;;;;;;;;;10.86;82.96;98065.13;8397455;28;20420;-71
2022/04/06 08:57:56;;;;;;;;;;;;;;;10.78;81.93;98063.31;8397602;28;20627;-71
2022/04/06 09:01:57;;;;;;;;;;;;;;;10.67;83.22;98076.47;8398648;28;20053;-71
2022/04/06 09:06:11;;;;;;;;;;;;;;;10.76;81.73;98066.34;8397084;28;19927;-71
2022/04/06 09:10:14;;;;;;;;;;;;;;;10.73;79.86;98060.84;8398514;28;20342;-71
2022/04/06 09:14:15;;;;;;;;;;;;;;;10.76;79.78;98065.56;8398067;28;19920;-71
2022/04/06 09:18:15;;;;;;;;;;;;;;;10.69;78.50;98065.31;8396545;28;20323;-71
2022/04/06 09:22:16;;;;;;;;;;;;;;;10.63;79.69;98069.38;8345753;28;19925;-71
2022/04/06 09:26:21;;;;;;;;;;;;;;;10.57;79.61;98069.56;8385865;28;19954;-72
2022/04/06 09:30:23;;;;;;;;;;;;;;;10.48;80.21;98066.16;8394467;28;19935;-70
2022/04/06 09:34:26;;;;;;;;;;;;;;;10.49;79.46;98056.94;8397370;28;19953;-70
2022/04/06 09:38:29;;;;;;;;;;;;;;;10.52;79.68;98042.00;8345301;28;20294;-72
2022/04/06 09:42:31;;;;;;;;;;;;;;;10.62;79.08;98048.91;8397591;28;20018;-71
2022/04/06 09:50:55;;;;;;;;;;;;;;;11.23;78.87;98053.22;8397260;28;20284;-71
2022/04/06 09:54:56;;;;;;;;;;;;;;;11.52;78.28;98051.41;8397352;28;19920;-71
2022/04/06 09:58:57;;;;;;;;;;;;;;;11.67;78.76;98056.13;8397190;28;20015;-71
2022/04/06 10:03:04;;;;;;;;;;;;;;;11.78;77.77;98052.66;8396783;28;19920;-70
2022/04/06 10:07:06;;;;;;;;;;;;;;;11.97;77.04;98049.31;8396517;28;19920;-71
2022/04/06 10:11:07;;;;;;;;;;;;;;;11.94;76.44;98044.59;8396665;28;19921;-71
2022/04/06 10:15:08;;;;;;;;;;;;;;;11.98;77.01;98050.91;8395286;28;19958;-71
2022/04/06 10:19:12;;;;;;;;;;;;;;;11.92;76.71;98046.84;8394264;28;20026;-71
2022/04/06 10:23:31;;;;;;;;;;;;;;;11.75;77.26;98052.53;8362876;28;19920;-71
2022/04/06 10:27:38;;;;;;;;;;;;;;;11.60;76.55;98050.50;8362747;28;19920;-71
2022/04/06 10:31:39;;;;;;;;;;;;;;;11.51;77.95;98041.72;8376884;28;19920;-70
2022/04/06 10:35:40;;;;;;;;;;;;;;;11.47;77.80;98040.84;8361548;28;19928;-70
2022/04/06 10:39:53;;;;;;;;;;;;;;;11.58;78.41;98053.53;8393512;28;19955;-71
2022/04/06 10:43:55;;;;;;;;;;;;;;;11.72;77.72;98045.06;8362556;28;19935;-70
2022/04/06 10:48:12;;;;;;;;;;;;;;;11.60;77.85;98051.28;8361167;28;20337;-70
2022/04/06 10:52:22;;;;;;;;;;;;;;;11.32;79.52;98034.19;8376668;28;19925;-70
2022/04/06 10:56:23;;;;;;;;;;;;;;;11.04;80.63;98050.31;8362042;28;20414;-70
2022/04/06 11:00:25;;;;;;;;;;;;;;;10.94;82.45;98039.94;8362207;28;19962;-70
2022/04/06 11:04:26;;;;;;;;;;;;;;;10.88;82.76;98035.88;8361760;28;19925;-71
2022/04/06 11:13:06;;;;;;;;;;;;;;;11.61;81.06;98025.03;8361750;28;19948;-70
2022/04/06 11:17:45;;;;;;;;;;;;;;;12.02;77.37;98019.31;8361489;28;20058;-71
2022/04/06 11:21:53;;;;;;;;;;;;;;;12.28;73.83;98019.66;8312418;28;19921;-71
2022/04/06 11:25:54;;;;;;;;;;;;;;;12.27;70.46;98026.19;8324668;28;20281;-70
2022/04/06 11:30:00;;;;;;;;;;;;;;;12.47;68.96;98007.38;8275692;28;19921;-72
2022/04/06 11:34:02;;;;;;;;;;;;;;;12.68;68.75;98007.94;8324454;28;20059;-70
2022/04/06 11:38:04;;;;;;;;;;;;;;;12.75;67.29;98018.91;8259137;28;19980;-70
2022/04/06 11:42:08;;;;;;;;;;;;;;;12.68;66.13;98008.72;8243069;28;20360;-71
2022/04/06 11:46:09;;;;;;;;;;;;;;;12.58;67.69;98003.03;8259176;28;19922;-71
2022/04/06 11:50:10;;;;;;;;;;;;;;;12.50;67.79;98001.25;8256577;28;19921;-70
2022/04/06 11:54:11;;;;;;;;;;;;;;;12.36;67.73;98006.31;8259100;28;19929;-70
2022/04/06 11:58:26;;;;;;;;;;;;;;;12.19;68.63;98010.91;8301500;28;19921;-70
2022/04/06 12:02:27;;;;;;;;;;;;;;;12.14;69.99;98003.03;8355995;28;20384;-70
2022/04/06 12:06:32;;;;;;;;;;;;;;;12.13;70.51;97993.31;8356727;28;19960;-71
2022/04/06 12:10:33;;;;;;;;;;;;;;;12.22;71.10;97991.25;8355002;28;19920;-72
2022/04/06 12:14:34;;;;;;;;;;;;;;;12.36;70.32;97990.06;8340042;28;19929;-71
2022/04/06 12:18:38;;;;;;;;;;;;;;;12.23;71.31;97971.16;8337382;28;19920;-71
2022/04/06 12:22:39;;;;;;;;;;;;;;;12.41;71.41;97970.84;8335940;28;19920;-70
2022/04/06 12:26:41;;;;;;;;;;;;;;;12.84;70.26;97962.66;8354649;28;20041;-71
2022/04/06 12:30:58;;;;;;;;;;;;;;;13.28;70.00;97966.00;8404381;28;20388;-71
2022/04/06 12:34:59;;;;;;;;;;;;;;;13.70;67.80;97955.28;8396347;28;20360;-71
2022/04/06 12:39:08;;;;;;;;;;;;;;;13.72;67.82;97957.66;8394554;28;19921;-71
2022/04/06 12:43:24;;;;;;;;;;;;;;;13.74;65.36;97950.75;8395968;28;20413;-71
2022/04/06 12:47:25;;;;;;;;;;;;;;;13.75;64.03;97952.28;8394338;28;19921;-71
2022/04/06 12:51:26;;;;;;;;;;;;;;;13.85;61.54;97946.28;8394466;28;19967;-72
2022/04/06 12:55:27;;;;;;;;;;;;;;;13.81;62.25;97945.44;8410944;28;20169;-72
2022/04/06 12:59:37;;;;;;;;;;;;;;;13.78;59.29;97940.75;8396055;28;19920;-71
2022/04/06 13:03:39;;;;;;;;;;;;;;;13.78;60.82;97935.31;8395953;28;19927;-71
2022/04/06 13:07:44;;;;;;;;;;;;;;;13.89;60.53;97936.31;8360088;28;19927;-71
2022/04/06 13:11:45;;;;;;;;;;;;;;;13.76;58.18;97925.94;8395839;28;19927;-72
2022/04/06 13:15:46;;;;;;;;;;;;;;;13.67;58.71;97933.53;8394395;28;19920;-72
2022/04/06 13:19:47;;;;;;;;;;;;;;;13.78;58.24;97924.44;8395299;28;19925;-71
2022/04/06 13:23:48;;;;;;;;;;;;;;;14.06;56.44;97923.44;8395834;28;19924;-71
2022/04/06 13:27:49;;;;;;;;;;;;;;;14.17;57.10;97910.84;8395937;28;19973;-72
2022/04/06 13:31:50;;;;;;;;;;;;;;;14.12;56.35;97924.69;8395793;28;19920;-71
2022/04/06 13:35:51;;;;;;;;;;;;;;;14.22;55.59;97915.97;8394626;28;19931;-72
2022/04/06 13:39:52;;;;;;;;;;;;;;;14.03;55.68;97914.06;8394023;28;20385;-72
2022/04/06 13:43:54;;;;;;;;;;;;;;;13.93;55.84;97901.88;8393899;28;19930;-72
2022/04/06 13:47:55;;;;;;;;;;;;;;;13.96;54.80;97908.50;8394228;28;19921;-72
2022/04/06 13:51:56;;;;;;;;;;;;;;;14.06;55.87;97896.28;8394279;28;19928;-71
2022/04/06 13:55:56;;;;;;;;;;;;;;;14.17;56.74;97883.69;8394454;28;20326;-71
2022/04/06 13:59:57;;;;;;;;;;;;;;;14.29;54.74;97883.50;8394597;28;20371;-71
2022/04/06 14:03:58;;;;;;;;;;;;;;;14.34;55.78;97880.47;8394125;28;19920;-71
2022/04/06 14:07:59;;;;;;;;;;;;;;;14.43;54.91;97872.91;8393821;28;20384;-72
2022/04/06 14:12:03;;;;;;;;;;;;;;;14.26;55.76;97876.09;8375260;28;19920;-71
2022/04/06 14:16:04;;;;;;;;;;;;;;;14.28;56.14;97860.19;8390798;28;19947;-71
2022/04/06 14:20:05;;;;;;;;;;;;;;;14.47;54.86;97857.44;8393095;28;20010;-72
2022/04/06 14:24:07;;;;;;;;;;;;;;;14.51;55.48;97858.28;8392507;28;19920;-72
2022/04/06 14:28:08;;;;;;;;;;;;;;;14.53;54.81;97850.56;8393101;28;19921;-72
2022/04/06 14:32:09;;;;;;;;;;;;;;;15.39;53.84;97847.84;8391250;28;20014;-72
2022/04/06 14:36:11;;;;;;;;;;;;;;;16.72;51.29;97846.06;8393456;28;20330;-73
2022/04/06 14:40:12;;;;;;;;;;;;;;;17.18;46.02;97828.00;8390611;28;19921;-72
2022/04/06 14:44:12;;;;;;;;;;;;;;;16.98;47.06;97837.66;8389329;28;20220;-72
2022/04/06 14:48:14;;;;;;;;;;;;;;;16.94;46.65;97830.63;8392815;28;19970;-71
2022/04/06 14:52:15;;;;;;;;;;;;;;;16.35;46.37;97827.84;8390935;28;19927;-71
2022/04/06 14:56:16;;;;;;;;;;;;;;;16.83;45.85;97814.19;8389120;28;19920;-71
2022/04/06 15:00:17;;;;;;;;;;;;;;;16.69;44.68;97819.56;8392343;28;20015;-71
2022/04/06 15:04:18;;;;;;;;;;;;;;;16.11;46.71;97823.00;8388942;28;19985;-71
2022/04/06 15:08:19;;;;;;;;;;;;;;;15.43;48.60;97816.06;8391524;28;19956;-71
2022/04/06 15:12:20;;;;;;;;;;;;;;;15.08;49.99;97815.59;8390699;28;19927;-72
2022/04/06 15:16:21;;;;;;;;;;;;;;;16.38;46.96;97816.22;8391394;28;19920;-71
2022/04/06 15:20:22;;;;;;;;;;;;;;;16.75;44.95;97818.06;8393267;28;20337;-74
2022/04/06 15:24:23;;;;;;;;;;;;;;;16.17;45.56;97798.91;8393177;28;20015;-72
2022/04/06 15:28:24;;;;;;;;;;;;;;;15.59;48.03;97813.94;8391335;28;19927;-71
2022/04/06 15:32:25;;;;;;;;;;;;;;;15.16;48.71;97800.97;8372362;28;19924;-73
2022/04/06 15:40:45;;;;;;;;;;;;;;;14.59;51.04;97794.75;8391629;28;19963;-71
2022/04/06 15:44:46;;;;;;;;;;;;;;;14.53;51.27;97790.81;8373004;28;20008;-71
2022/04/06 15:48:47;;;;;;;;;;;;;;;14.57;51.28;97797.06;8391162;28;20362;-71
2022/04/06 15:52:48;;;;;;;;;;;;;;;14.50;51.34;97794.22;8391873;28;19925;-71
2022/04/06 15:56:48;;;;;;;;;;;;;;;14.88;50.24;97778.84;8390867;28;20372;-73
2022/04/06 16:00:52;;;;;;;;;;;;;;;15.11;49.65;97777.59;8391701;28;20416;-71
2022/04/06 16:04:55;;;;;;;;;;;;;;;14.97;49.75;97782.06;8390343;28;19932;-71
2022/04/06 16:08:56;;;;;;;;;;;;;;;14.61;50.91;97781.59;8397713;28;19920;-71
2022/04/06 16:12:57;;;;;;;;;;;;;;;14.40;51.98;97781.28;8378452;28;19926;-71
2022/04/06 16:16:58;;;;;;;;;;;;;;;14.28;52.79;97774.09;8397872;28;20007;-71
2022/04/06 16:20:59;;;;;;;;;;;;;;;14.25;53.55;97768.59;8397169;28;19920;-72
2022/04/06 16:25:00;;;;;;;;;;;;;;;14.03;54.36;97758.56;8395439;28;19921;-71
2022/04/06 16:29:02;;;;;;;;;;;;;;;13.85;55.30;97761.75;8397469;28;19963;-71
2022/04/06 16:33:03;;;;;;;;;;;;;;;13.84;55.28;97757.50;8396966;28;19920;-72
2022/04/06 16:37:04;;;;;;;;;;;;;;;13.76;55.07;97753.06;8397167;28;19963;-71
2022/04/06 16:41:05;;;;;;;;;;;;;;;13.42;56.41;97749.41;8397421;28;19989;-72
2022/04/06 16:45:06;;;;;;;;;;;;;;;13.26;57.34;97739.78;8397210;28;19920;-69
2022/04/06 16:49:07;;;;;;;;;;;;;;;13.06;57.98;97726.19;8395890;28;19924;-69
2022/04/06 16:53:08;;;;;;;;;;;;;;;12.95;58.25;97736.06;8396522;28;20019;-71
2022/04/06 16:57:09;;;;;;;;;;;;;;;12.83;58.50;97728.09;8396129;28;19962;-72
2022/04/06 17:01:30;;;;;;;;;;;;;;;12.65;58.92;97737.75;8393131;28;19921;-71
2022/04/06 17:05:31;;;;;;;;;;;;;;;12.62;58.83;97738.47;8394852;28;19926;-71
2022/04/06 17:09:32;;;;;;;;;;;;;;;12.37;59.59;97726.31;8393606;28;19920;-73
2022/04/06 17:13:34;;;;;;;;;;;;;;;12.20;60.16;97728.28;8387094;28;19959;-72
2022/04/06 17:17:35;;;;;;;;;;;;;;;12.00;60.62;97729.34;8380985;28;20304;-72
2022/04/06 17:21:36;;;;;;;;;;;;;;;11.84;61.08;97720.47;8389792;28;20509;-71
2022/04/06 17:25:36;;;;;;;;;;;;;;;11.74;61.46;97726.38;8392851;28;19920;-71
2022/04/06 17:29:43;;;;;;;;;;;;;;;11.58;61.85;97733.72;8377168;28;19924;-71
2022/04/06 17:33:44;;;;;;;;;;;;;;;11.43;62.23;97733.31;8395653;28;20418;-71
2022/04/06 17:37:48;;;;;;;;;;;;;;;11.34;62.53;97730.00;8378355;28;19963;-71
2022/04/06 17:41:50;;;;;;;;;;;;;;;11.27;62.77;97729.81;8396241;28;19920;-72
2022/04/06 17:45:51;;;;;;;;;;;;;;;11.13;63.35;97729.44;8396720;28;20303;-72
2022/04/06 17:49:51;;;;;;;;;;;;;;;11.06;63.54;97723.06;8396195;28;19920;-71
2022/04/06 17:53:52;;;;;;;;;;;;;;;10.90;64.20;97728.41;8396032;28;19927;-71
2022/04/06 17:57:53;;;;;;;;;;;;;;;10.80;64.65;97737.78;8396088;28;19921;-71
2022/04/06 18:01:55;;;;;;;;;;;;;;;10.74;64.89;97741.06;8395375;28;19920;-72
2022/04/06 18:05:56;;;;;;;;;;;;;;;10.64;65.05;97738.84;8394415;28;20459;-72
2022/04/06 18:09:57;;;;;;;;;;;;;;;10.59;65.06;97743.38;8392599;28;19965;-71
2022/04/06 18:13:58;;;;;;;;;;;;;;;10.49;65.42;97738.44;8409572;28;20534;-72
2022/04/06 18:17:59;;;;;;;;;;;;;;;10.52;65.14;97748.53;8395278;28;20296;-71
2022/04/06 18:22:00;;;;;;;;;;;;;;;10.36;66.02;97745.00;8396107;28;19955;-71
2022/04/06 18:26:06;;;;;;;;;;;;;;;10.26;66.30;97752.78;8376801;28;20015;-71
2022/04/06 18:30:09;;;;;;;;;;;;;;;10.22;66.62;97755.34;8377241;28;19920;-71
2022/04/06 18:34:10;;;;;;;;;;;;;;;10.25;66.27;97741.19;8394677;28;20351;-71
2022/04/06 18:38:12;;;;;;;;;;;;;;;10.24;66.45;97742.31;8395699;28;19920;-70
2022/04/06 18:42:13;;;;;;;;;;;;;;;10.12;66.62;97750.38;8428060;28;19924;-71
2022/04/06 18:46:14;;;;;;;;;;;;;;;9.90;67.66;97740.03;8393152;28;19956;-71
2022/04/06 18:50:15;;;;;;;;;;;;;;;9.70;68.30;97750.59;8393756;28;19952;-71
2022/04/06 18:54:16;;;;;;;;;;;;;;;9.57;69.08;97740.91;8395792;28;19926;-72
2022/04/06 18:58:18;;;;;;;;;;;;;;;9.25;70.85;97744.44;8396320;28;19931;-71
2022/04/06 19:02:20;;;;;;;;;;;;;;;9.19;70.88;97741.19;8396233;28;19920;-70
2022/04/06 19:06:22;;;;;;;;;;;;;;;9.09;71.19;97735.41;8393079;28;20283;-71
2022/04/06 19:10:24;;;;;;;;;;;;;;;8.94;72.10;97738.69;8374999;28;20148;-70
2022/04/06 19:14:26;;;;;;;;;;;;;;;9.00;71.70;97732.00;8393470;28;20349;-71
2022/04/06 19:18:27;;;;;;;;;;;;;;;9.18;70.91;97733.41;8393422;28;19986;-71
2022/04/06 19:22:28;;;;;;;;;;;;;;;9.38;70.34;97732.56;8392823;28;19921;-71
2022/04/06 19:26:29;;;;;;;;;;;;;;;9.50;70.03;97734.50;8391381;28;19958;-71
2022/04/06 19:30:31;;;;;;;;;;;;;;;9.50;70.01;97740.69;8387803;28;19920;-70
2022/04/06 19:34:33;;;;;;;;;;;;;;;9.42;70.38;97738.84;8391061;28;20010;-70
2022/04/06 19:38:38;;;;;;;;;;;;;;;9.28;70.98;97744.56;8392891;28;19927;-70
2022/04/06 19:42:40;;;;;;;;;;;;;;;9.29;70.78;97739.97;8397857;28;19926;-72
2022/04/06 19:46:40;;;;;;;;;;;;;;;9.20;71.51;97736.59;8398960;28;19921;-70
2022/04/06 19:50:41;;;;;;;;;;;;;;;9.14;71.82;97727.91;8398802;28;19982;-70
2022/04/06 19:54:42;;;;;;;;;;;;;;;9.12;72.26;97713.19;8399603;28;19920;-71
2022/04/06 19:58:43;;;;;;;;;;;;;;;9.08;72.54;97712.28;8400554;28;19921;-71
2022/04/06 20:02:44;;;;;;;;;;;;;;;9.01;72.75;97712.03;8401552;28;19962;-71
2022/04/06 20:06:45;;;;;;;;;;;;;;;8.99;73.23;97704.28;8367686;28;19920;-70
2022/04/06 20:10:49;;;;;;;;;;;;;;;8.96;73.34;97704.16;8368437;28;19990;-71
2022/04/06 20:14:50;;;;;;;;;;;;;;;8.85;74.26;97693.81;8398672;28;19952;-70
2022/04/06 20:18:51;;;;;;;;;;;;;;;8.79;74.83;97700.53;8415231;28;20287;-70
2022/04/06 20:22:52;;;;;;;;;;;;;;;8.75;75.35;97691.53;8397492;28;19920;-70
2022/04/06 20:26:53;;;;;;;;;;;;;;;8.76;75.20;97695.81;8399054;28;19927;-71
2022/04/06 20:30:54;;;;;;;;;;;;;;;8.77;75.21;97692.00;8399213;28;19924;-70
2022/04/06 20:34:54;;;;;;;;;;;;;;;8.76;75.65;97679.66;8399738;28;20359;-70
2022/04/06 20:38:57;;;;;;;;;;;;;;;8.70;75.79;97686.34;8399470;28;19943;-70
2022/04/06 20:42:58;;;;;;;;;;;;;;;8.67;75.88;97665.47;8398804;28;19927;-70
2022/04/06 20:46:58;;;;;;;;;;;;;;;8.69;75.58;97668.63;8399164;28;20295;-70
2022/04/06 20:51:02;;;;;;;;;;;;;;;8.69;75.60;97668.63;8397041;28;19952;-70
2022/04/06 20:55:03;;;;;;;;;;;;;;;8.76;75.19;97665.41;8396516;28;19990;-71
2022/04/06 20:59:04;;;;;;;;;;;;;;;8.77;75.40;97665.09;8394483;28;19925;-70
2022/04/06 21:03:05;;;;;;;;;;;;;;;8.66;75.82;97653.16;8393165;28;19924;-70
2022/04/06 21:07:06;;;;;;;;;;;;;;;8.56;76.25;97653.56;8412383;28;19928;-70
2022/04/06 21:11:07;;;;;;;;;;;;;;;8.52;76.06;97652.63;8397034;28;19920;-70
2022/04/06 21:15:09;;;;;;;;;;;;;;;8.53;75.72;97648.84;8397713;28;20406;-70
2022/04/06 21:19:09;;;;;;;;;;;;;;;8.51;76.12;97645.69;8391775;28;19924;-72
2022/04/06 21:23:10;;;;;;;;;;;;;;;8.46;76.63;97643.19;8392882;28;19920;-71
2022/04/06 21:27:11;;;;;;;;;;;;;;;8.42;76.73;97636.91;8393078;28;19959;-71